sensor_id;sensor_type;location;lat;lon;timestamp;temperature;humidity
11559;DHT22;5835;42.930;25.178;2023-11-19T00:02:13;2.80;99.90
11559;DHT22;5835;42.930;25.178;2023-11-19T00:04:41;2.80;99.90
11559;DHT22;5835;42.930;25.178;2023-11-19T00:07:09;2.80;99.90
11559;DHT22;5835;42.930;25.178;2023-11-19T00:09:38;2.80;99.90
11559;DHT22;5835;42.930;25.178;2023-11-19T00:12:07;2.80;99.90
11559;DHT22;5835;42.930;25.178;2023-11-19T00:14:36;2.80;99.90
11559;DHT22;5835;42.930;25.178;2023-11-19T00:17:06;2.70;99.90
11559;DHT22;5835;42.930;25.178;2023-11-19T00:19:33;2.70;99.90
11559;DHT22;5835;42.930;25.178;2023-11-19T00:22:01;2.70;99.90
11559;DHT22;5835;42.930;25.178;2023-11-19T00:24:28;2.70;99.90
11559;DHT22;5835;42.930;25.178;2023-11-19T00:26:56;2.70;99.90
11559;DHT22;5835;42.930;25.178;2023-11-19T00:29:24;2.70;99.90
11559;DHT22;5835;42.930;25.178;2023-11-19T00:31:51;2.70;99.90
11559;DHT22;5835;42.930;25.178;2023-11-19T00:34:21;2.70;99.90
11559;DHT22;5835;42.930;25.178;2023-11-19T00:36:48;2.70;99.90
11559;DHT22;5835;42.930;25.178;2023-11-19T00:39:16;2.80;99.90
11559;DHT22;5835;42.930;25.178;2023-11-19T00:41:47;2.70;99.90
11559;DHT22;5835;42.930;25.178;2023-11-19T00:44:15;2.80;99.90
11559;DHT22;5835;42.930;25.178;2023-11-19T00:46:43;2.80;99.90
11559;DHT22;5835;42.930;25.178;2023-11-19T00:49:10;2.80;99.90
11559;DHT22;5835;42.930;25.178;2023-11-19T00:51:40;2.80;99.90
11559;DHT22;5835;42.930;25.178;2023-11-19T00:54:07;2.80;99.90
11559;DHT22;5835;42.930;25.178;2023-11-19T00:56:35;2.80;99.90
11559;DHT22;5835;42.930;25.178;2023-11-19T00:59:03;2.80;99.90
11559;DHT22;5835;42.930;25.178;2023-11-19T01:01:31;2.90;99.90
11559;DHT22;5835;42.930;25.178;2023-11-19T01:03:58;2.90;99.90
11559;DHT22;5835;42.930;25.178;2023-11-19T01:06:30;2.90;99.90
11559;DHT22;5835;42.930;25.178;2023-11-19T01:08:59;2.90;99.90
11559;DHT22;5835;42.930;25.178;2023-11-19T01:11:27;2.90;99.90
11559;DHT22;5835;42.930;25.178;2023-11-19T01:13:55;3.00;99.90
11559;DHT22;5835;42.930;25.178;2023-11-19T01:16:22;3.00;99.90
11559;DHT22;5835;42.930;25.178;2023-11-19T01:18:50;2.90;99.90
11559;DHT22;5835;42.930;25.178;2023-11-19T01:21:18;3.00;99.90
11559;DHT22;5835;42.930;25.178;2023-11-19T01:23:46;3.00;99.90
11559;DHT22;5835;42.930;25.178;2023-11-19T01:26:15;3.00;99.90
11559;DHT22;5835;42.930;25.178;2023-11-19T01:28:43;3.00;99.90
11559;DHT22;5835;42.930;25.178;2023-11-19T01:31:11;3.00;99.90
11559;DHT22;5835;42.930;25.178;2023-11-19T01:33:38;3.00;99.90
11559;DHT22;5835;42.930;25.178;2023-11-19T01:36:08;3.10;99.90
11559;DHT22;5835;42.930;25.178;2023-11-19T01:38:36;3.00;99.90
11559;DHT22;5835;42.930;25.178;2023-11-19T01:41:04;3.00;99.90
11559;DHT22;5835;42.930;25.178;2023-11-19T01:43:36;3.10;88.70
11559;DHT22;5835;42.930;25.178;2023-11-19T01:46:05;3.10;56.80
11559;DHT22;5835;42.930;25.178;2023-11-19T01:48:37;3.10;34.10
11559;DHT22;5835;42.930;25.178;2023-11-19T01:51:07;3.10;40.70
11559;DHT22;5835;42.930;25.178;2023-11-19T01:53:36;3.20;1.00
11559;DHT22;5835;42.930;25.178;2023-11-19T01:56:07;3.20;1.00
11559;DHT22;5835;42.930;25.178;2023-11-19T01:58:38;3.10;1.00
11559;DHT22;5835;42.930;25.178;2023-11-19T02:01:06;3.20;1.00
11559;DHT22;5835;42.930;25.178;2023-11-19T02:03:35;3.20;1.00
11559;DHT22;5835;42.930;25.178;2023-11-19T02:06:03;3.20;1.00
11559;DHT22;5835;42.930;25.178;2023-11-19T02:08:33;3.30;1.00
11559;DHT22;5835;42.930;25.178;2023-11-19T02:11:01;3.20;1.00
11559;DHT22;5835;42.930;25.178;2023-11-19T02:13:29;3.20;1.00
11559;DHT22;5835;42.930;25.178;2023-11-19T02:15:58;3.30;1.00
11559;DHT22;5835;42.930;25.178;2023-11-19T02:18:27;3.20;1.00
11559;DHT22;5835;42.930;25.178;2023-11-19T02:20:56;3.30;99.90
11559;DHT22;5835;42.930;25.178;2023-11-19T02:23:25;3.30;99.90
11559;DHT22;5835;42.930;25.178;2023-11-19T02:26:02;3.30;99.90
11559;DHT22;5835;42.930;25.178;2023-11-19T02:28:33;3.30;99.90
11559;DHT22;5835;42.930;25.178;2023-11-19T02:31:01;3.30;74.20
11559;DHT22;5835;42.930;25.178;2023-11-19T02:33:30;3.30;6.80
11559;DHT22;5835;42.930;25.178;2023-11-19T02:35:58;3.40;99.90
11559;DHT22;5835;42.930;25.178;2023-11-19T02:38:25;3.30;1.00
11559;DHT22;5835;42.930;25.178;2023-11-19T02:40:53;3.40;99.90
11559;DHT22;5835;42.930;25.178;2023-11-19T02:43:21;3.40;1.00
11559;DHT22;5835;42.930;25.178;2023-11-19T02:45:53;3.40;99.90
11559;DHT22;5835;42.930;25.178;2023-11-19T02:48:21;3.40;1.00
11559;DHT22;5835;42.930;25.178;2023-11-19T02:50:49;3.40;99.90
11559;DHT22;5835;42.930;25.178;2023-11-19T02:53:18;3.40;1.00
11559;DHT22;5835;42.930;25.178;2023-11-19T02:55:47;3.40;24.50
11559;DHT22;5835;42.930;25.178;2023-11-19T02:58:16;3.40;1.00
11559;DHT22;5835;42.930;25.178;2023-11-19T03:00:53;3.40;99.90
11559;DHT22;5835;42.930;25.178;2023-11-19T03:03:24;3.40;1.00
11559;DHT22;5835;42.930;25.178;2023-11-19T03:05:54;3.40;13.10
11559;DHT22;5835;42.930;25.178;2023-11-19T03:08:22;3.40;1.00
11559;DHT22;5835;42.930;25.178;2023-11-19T03:10:50;3.40;1.00
11559;DHT22;5835;42.930;25.178;2023-11-19T03:13:17;3.40;1.00
11559;DHT22;5835;42.930;25.178;2023-11-19T03:15:45;3.40;99.90
11559;DHT22;5835;42.930;25.178;2023-11-19T03:18:14;3.40;99.90
11559;DHT22;5835;42.930;25.178;2023-11-19T03:20:42;3.40;99.90
11559;DHT22;5835;42.930;25.178;2023-11-19T03:23:09;3.40;1.00
11559;DHT22;5835;42.930;25.178;2023-11-19T03:25:37;3.40;1.00
11559;DHT22;5835;42.930;25.178;2023-11-19T03:28:04;3.40;99.90
11559;DHT22;5835;42.930;25.178;2023-11-19T03:30:32;3.40;99.90
11559;DHT22;5835;42.930;25.178;2023-11-19T03:32:59;3.50;1.00
11559;DHT22;5835;42.930;25.178;2023-11-19T03:35:30;3.40;1.00
11559;DHT22;5835;42.930;25.178;2023-11-19T03:37:59;3.50;99.90
11559;DHT22;5835;42.930;25.178;2023-11-19T03:40:27;3.40;1.00
11559;DHT22;5835;42.930;25.178;2023-11-19T03:42:56;3.50;99.90
11559;DHT22;5835;42.930;25.178;2023-11-19T03:45:24;3.40;1.00
11559;DHT22;5835;42.930;25.178;2023-11-19T03:47:51;3.40;1.00
11559;DHT22;5835;42.930;25.178;2023-11-19T03:50:19;3.40;1.00
11559;DHT22;5835;42.930;25.178;2023-11-19T03:52:50;3.40;99.90
11559;DHT22;5835;42.930;25.178;2023-11-19T03:55:18;3.40;99.90
11559;DHT22;5835;42.930;25.178;2023-11-19T03:57:46;3.50;1.00
11559;DHT22;5835;42.930;25.178;2023-11-19T04:00:15;3.40;1.00
11559;DHT22;5835;42.930;25.178;2023-11-19T04:02:43;3.40;1.00
11559;DHT22;5835;42.930;25.178;2023-11-19T04:05:14;3.40;1.00
11559;DHT22;5835;42.930;25.178;2023-11-19T04:07:43;3.40;1.00
11559;DHT22;5835;42.930;25.178;2023-11-19T04:10:13;3.40;1.00
11559;DHT22;5835;42.930;25.178;2023-11-19T04:12:42;3.50;1.00
11559;DHT22;5835;42.930;25.178;2023-11-19T04:15:11;3.40;99.90
11559;DHT22;5835;42.930;25.178;2023-11-19T04:17:39;3.40;99.90
11559;DHT22;5835;42.930;25.178;2023-11-19T04:20:07;3.40;99.90
11559;DHT22;5835;42.930;25.178;2023-11-19T04:22:39;3.40;99.90
11559;DHT22;5835;42.930;25.178;2023-11-19T04:25:07;3.40;99.90
11559;DHT22;5835;42.930;25.178;2023-11-19T04:27:36;3.40;99.90
11559;DHT22;5835;42.930;25.178;2023-11-19T04:30:05;3.40;99.90
11559;DHT22;5835;42.930;25.178;2023-11-19T04:32:33;3.40;99.90
11559;DHT22;5835;42.930;25.178;2023-11-19T04:35:01;3.40;37.60
11559;DHT22;5835;42.930;25.178;2023-11-19T04:37:28;3.50;1.00
11559;DHT22;5835;42.930;25.178;2023-11-19T04:39:56;3.50;1.00
11559;DHT22;5835;42.930;25.178;2023-11-19T04:42:24;3.40;1.00
11559;DHT22;5835;42.930;25.178;2023-11-19T04:44:53;3.50;99.90
11559;DHT22;5835;42.930;25.178;2023-11-19T04:47:21;3.40;1.00
11559;DHT22;5835;42.930;25.178;2023-11-19T04:49:48;3.40;99.90
11559;DHT22;5835;42.930;25.178;2023-11-19T04:52:16;3.40;1.00
11559;DHT22;5835;42.930;25.178;2023-11-19T04:54:44;3.40;99.90
11559;DHT22;5835;42.930;25.178;2023-11-19T04:57:12;3.40;99.90
11559;DHT22;5835;42.930;25.178;2023-11-19T04:59:39;3.40;99.90
11559;DHT22;5835;42.930;25.178;2023-11-19T05:02:09;3.40;99.90
11559;DHT22;5835;42.930;25.178;2023-11-19T05:04:37;3.40;99.90
11559;DHT22;5835;42.930;25.178;2023-11-19T05:07:05;3.40;99.90
11559;DHT22;5835;42.930;25.178;2023-11-19T05:09:33;3.30;99.90
11559;DHT22;5835;42.930;25.178;2023-11-19T05:12:00;3.40;99.90
11559;DHT22;5835;42.930;25.178;2023-11-19T05:14:28;3.40;99.90
11559;DHT22;5835;42.930;25.178;2023-11-19T05:16:56;3.30;99.90
11559;DHT22;5835;42.930;25.178;2023-11-19T05:19:25;3.30;99.90
11559;DHT22;5835;42.930;25.178;2023-11-19T05:21:53;3.30;99.90
11559;DHT22;5835;42.930;25.178;2023-11-19T05:24:21;3.30;99.90
11559;DHT22;5835;42.930;25.178;2023-11-19T05:26:48;3.30;99.90
11559;DHT22;5835;42.930;25.178;2023-11-19T05:29:16;3.30;99.90
11559;DHT22;5835;42.930;25.178;2023-11-19T05:31:44;3.30;99.90
11559;DHT22;5835;42.930;25.178;2023-11-19T05:34:11;3.20;99.90
11559;DHT22;5835;42.930;25.178;2023-11-19T05:36:42;3.30;99.90
11559;DHT22;5835;42.930;25.178;2023-11-19T05:39:10;3.20;99.90
11559;DHT22;5835;42.930;25.178;2023-11-19T05:41:38;3.30;99.90
11559;DHT22;5835;42.930;25.178;2023-11-19T05:44:06;3.20;99.90
11559;DHT22;5835;42.930;25.178;2023-11-19T05:46:34;3.20;99.90
11559;DHT22;5835;42.930;25.178;2023-11-19T05:49:06;3.20;99.90
11559;DHT22;5835;42.930;25.178;2023-11-19T05:51:36;3.20;99.90
11559;DHT22;5835;42.930;25.178;2023-11-19T05:54:06;3.20;99.90
11559;DHT22;5835;42.930;25.178;2023-11-19T05:56:34;3.20;80.00
11559;DHT22;5835;42.930;25.178;2023-11-19T05:59:02;3.20;26.00
11559;DHT22;5835;42.930;25.178;2023-11-19T06:01:35;3.20;1.00
11559;DHT22;5835;42.930;25.178;2023-11-19T06:04:04;3.20;1.00
11559;DHT22;5835;42.930;25.178;2023-11-19T06:06:32;3.20;1.00
11559;DHT22;5835;42.930;25.178;2023-11-19T06:09:00;3.30;1.00
11559;DHT22;5835;42.930;25.178;2023-11-19T06:11:29;3.30;1.00
11559;DHT22;5835;42.930;25.178;2023-11-19T06:13:57;3.30;1.00
11559;DHT22;5835;42.930;25.178;2023-11-19T06:16:24;3.20;1.00
11559;DHT22;5835;42.930;25.178;2023-11-19T06:18:52;3.30;1.00
11559;DHT22;5835;42.930;25.178;2023-11-19T06:21:20;3.30;1.00
11559;DHT22;5835;42.930;25.178;2023-11-19T06:23:48;3.30;1.00
11559;DHT22;5835;42.930;25.178;2023-11-19T06:26:18;3.30;1.00
11559;DHT22;5835;42.930;25.178;2023-11-19T06:28:47;3.30;1.00
11559;DHT22;5835;42.930;25.178;2023-11-19T06:31:15;3.30;1.00
11559;DHT22;5835;42.930;25.178;2023-11-19T06:33:42;3.30;1.00
11559;DHT22;5835;42.930;25.178;2023-11-19T06:36:10;3.30;99.90
11559;DHT22;5835;42.930;25.178;2023-11-19T06:38:38;3.40;99.90
11559;DHT22;5835;42.930;25.178;2023-11-19T06:41:07;3.40;99.90
11559;DHT22;5835;42.930;25.178;2023-11-19T06:43:36;3.40;99.90
11559;DHT22;5835;42.930;25.178;2023-11-19T06:46:14;3.40;99.90
11559;DHT22;5835;42.930;25.178;2023-11-19T06:48:42;3.40;99.90
11559;DHT22;5835;42.930;25.178;2023-11-19T06:51:10;3.40;99.90
11559;DHT22;5835;42.930;25.178;2023-11-19T06:53:38;3.50;99.90
11559;DHT22;5835;42.930;25.178;2023-11-19T06:56:16;3.50;99.90
11559;DHT22;5835;42.930;25.178;2023-11-19T06:58:44;3.40;99.90
11559;DHT22;5835;42.930;25.178;2023-11-19T07:01:13;3.50;99.90
11559;DHT22;5835;42.930;25.178;2023-11-19T07:03:41;3.50;1.00
11559;DHT22;5835;42.930;25.178;2023-11-19T07:06:08;3.50;30.50
11559;DHT22;5835;42.930;25.178;2023-11-19T07:08:38;3.50;1.00
11559;DHT22;5835;42.930;25.178;2023-11-19T07:11:06;3.50;1.00
11559;DHT22;5835;42.930;25.178;2023-11-19T07:13:36;3.50;1.00
11559;DHT22;5835;42.930;25.178;2023-11-19T07:16:05;3.50;1.00
11559;DHT22;5835;42.930;25.178;2023-11-19T07:18:37;3.50;1.00
11559;DHT22;5835;42.930;25.178;2023-11-19T07:21:06;3.50;1.00
11559;DHT22;5835;42.930;25.178;2023-11-19T07:23:36;3.50;1.00
11559;DHT22;5835;42.930;25.178;2023-11-19T07:26:06;3.50;1.00
11559;DHT22;5835;42.930;25.178;2023-11-19T07:28:35;3.50;1.00
11559;DHT22;5835;42.930;25.178;2023-11-19T07:31:03;3.60;1.00
11559;DHT22;5835;42.930;25.178;2023-11-19T07:33:31;3.60;1.00
11559;DHT22;5835;42.930;25.178;2023-11-19T07:36:00;3.60;1.00
11559;DHT22;5835;42.930;25.178;2023-11-19T07:38:28;3.70;1.00
11559;DHT22;5835;42.930;25.178;2023-11-19T07:40:55;3.70;1.00
11559;DHT22;5835;42.930;25.178;2023-11-19T07:43:23;3.70;1.00
11559;DHT22;5835;42.930;25.178;2023-11-19T07:45:51;3.70;1.00
11559;DHT22;5835;42.930;25.178;2023-11-19T07:48:18;3.80;99.90
11559;DHT22;5835;42.930;25.178;2023-11-19T07:50:49;3.80;99.90
11559;DHT22;5835;42.930;25.178;2023-11-19T07:53:21;3.80;99.90
11559;DHT22;5835;42.930;25.178;2023-11-19T07:55:48;3.80;99.90
11559;DHT22;5835;42.930;25.178;2023-11-19T07:58:16;3.80;99.90
11559;DHT22;5835;42.930;25.178;2023-11-19T08:00:44;3.90;99.90
11559;DHT22;5835;42.930;25.178;2023-11-19T08:03:11;3.90;99.90
11559;DHT22;5835;42.930;25.178;2023-11-19T08:05:39;3.90;99.90
11559;DHT22;5835;42.930;25.178;2023-11-19T08:08:06;4.00;87.60
11559;DHT22;5835;42.930;25.178;2023-11-19T08:10:36;4.00;1.00
11559;DHT22;5835;42.930;25.178;2023-11-19T08:13:03;4.00;1.00
11559;DHT22;5835;42.930;25.178;2023-11-19T08:15:31;4.10;1.00
11559;DHT22;5835;42.930;25.178;2023-11-19T08:17:59;4.20;99.90
11559;DHT22;5835;42.930;25.178;2023-11-19T08:20:27;4.20;99.90
11559;DHT22;5835;42.930;25.178;2023-11-19T08:22:54;4.20;99.90
11559;DHT22;5835;42.930;25.178;2023-11-19T08:25:21;4.20;99.90
11559;DHT22;5835;42.930;25.178;2023-11-19T08:27:51;4.20;99.90
11559;DHT22;5835;42.930;25.178;2023-11-19T08:30:19;4.20;99.90
11559;DHT22;5835;42.930;25.178;2023-11-19T08:32:46;4.20;46.30
11559;DHT22;5835;42.930;25.178;2023-11-19T08:35:14;4.30;1.00
11559;DHT22;5835;42.930;25.178;2023-11-19T08:37:42;4.30;1.00
11559;DHT22;5835;42.930;25.178;2023-11-19T08:40:12;4.30;1.00
11559;DHT22;5835;42.930;25.178;2023-11-19T08:42:40;4.40;1.00
11559;DHT22;5835;42.930;25.178;2023-11-19T08:45:10;4.50;1.00
11559;DHT22;5835;42.930;25.178;2023-11-19T08:47:40;4.50;1.00
11559;DHT22;5835;42.930;25.178;2023-11-19T08:50:07;4.50;1.00
11559;DHT22;5835;42.930;25.178;2023-11-19T08:52:35;4.60;1.00
11559;DHT22;5835;42.930;25.178;2023-11-19T08:55:03;4.60;1.00
11559;DHT22;5835;42.930;25.178;2023-11-19T08:57:32;4.70;1.00
11559;DHT22;5835;42.930;25.178;2023-11-19T08:59:59;4.70;1.00
11559;DHT22;5835;42.930;25.178;2023-11-19T09:02:28;4.80;1.00
11559;DHT22;5835;42.930;25.178;2023-11-19T09:04:56;4.80;1.00
11559;DHT22;5835;42.930;25.178;2023-11-19T09:07:24;4.80;1.00
11559;DHT22;5835;42.930;25.178;2023-11-19T09:09:52;4.90;1.00
11559;DHT22;5835;42.930;25.178;2023-11-19T09:12:20;5.00;99.90
11559;DHT22;5835;42.930;25.178;2023-11-19T09:14:48;5.00;99.90
11559;DHT22;5835;42.930;25.178;2023-11-19T09:17:19;5.00;99.90
11559;DHT22;5835;42.930;25.178;2023-11-19T09:19:48;5.00;99.90
11559;DHT22;5835;42.930;25.178;2023-11-19T09:22:17;5.00;99.90
11559;DHT22;5835;42.930;25.178;2023-11-19T09:24:46;5.10;99.90
11559;DHT22;5835;42.930;25.178;2023-11-19T09:27:14;5.20;99.90
11559;DHT22;5835;42.930;25.178;2023-11-19T09:29:42;5.30;99.90
11559;DHT22;5835;42.930;25.178;2023-11-19T09:32:11;5.30;99.90
11559;DHT22;5835;42.930;25.178;2023-11-19T09:34:39;5.30;99.90
11559;DHT22;5835;42.930;25.178;2023-11-19T09:37:09;5.40;99.90
11559;DHT22;5835;42.930;25.178;2023-11-19T09:39:36;5.60;99.90
11559;DHT22;5835;42.930;25.178;2023-11-19T09:42:04;5.60;99.90
11559;DHT22;5835;42.930;25.178;2023-11-19T09:44:32;5.70;99.90
11559;DHT22;5835;42.930;25.178;2023-11-19T09:47:00;5.60;99.90
11559;DHT22;5835;42.930;25.178;2023-11-19T09:49:29;5.70;99.90
11559;DHT22;5835;42.930;25.178;2023-11-19T09:51:58;5.70;99.90
11559;DHT22;5835;42.930;25.178;2023-11-19T09:54:28;5.70;99.90
11559;DHT22;5835;42.930;25.178;2023-11-19T09:56:57;5.70;99.90
11559;DHT22;5835;42.930;25.178;2023-11-19T09:59:29;5.80;99.90
11559;DHT22;5835;42.930;25.178;2023-11-19T10:01:57;5.80;99.90
11559;DHT22;5835;42.930;25.178;2023-11-19T10:04:26;5.90;99.90
11559;DHT22;5835;42.930;25.178;2023-11-19T10:06:56;6.00;99.90
11559;DHT22;5835;42.930;25.178;2023-11-19T10:09:25;5.90;99.90
11559;DHT22;5835;42.930;25.178;2023-11-19T10:11:54;6.10;99.90
11559;DHT22;5835;42.930;25.178;2023-11-19T10:14:23;6.00;99.90
11559;DHT22;5835;42.930;25.178;2023-11-19T10:16:55;6.20;99.90
11559;DHT22;5835;42.930;25.178;2023-11-19T10:19:23;6.20;99.90
11559;DHT22;5835;42.930;25.178;2023-11-19T10:21:50;6.10;99.90
11559;DHT22;5835;42.930;25.178;2023-11-19T10:24:31;6.00;99.90
11559;DHT22;5835;42.930;25.178;2023-11-19T10:27:01;6.00;99.90
11559;DHT22;5835;42.930;25.178;2023-11-19T10:29:30;6.00;99.90
11559;DHT22;5835;42.930;25.178;2023-11-19T10:31:58;6.30;99.90
11559;DHT22;5835;42.930;25.178;2023-11-19T10:34:26;6.30;99.90
11559;DHT22;5835;42.930;25.178;2023-11-19T10:36:56;6.50;99.90
11559;DHT22;5835;42.930;25.178;2023-11-19T10:39:23;6.90;99.90
11559;DHT22;5835;42.930;25.178;2023-11-19T10:41:51;7.00;77.90
11559;DHT22;5835;42.930;25.178;2023-11-19T10:44:33;6.70;42.60
11559;DHT22;5835;42.930;25.178;2023-11-19T10:47:02;6.90;47.80
11559;DHT22;5835;42.930;25.178;2023-11-19T10:49:32;6.80;32.50
11559;DHT22;5835;42.930;25.178;2023-11-19T10:52:01;7.10;34.30
11559;DHT22;5835;42.930;25.178;2023-11-19T10:54:31;6.80;13.90
11559;DHT22;5835;42.930;25.178;2023-11-19T10:57:00;6.50;28.60
11559;DHT22;5835;42.930;25.178;2023-11-19T10:59:30;6.30;17.40
11559;DHT22;5835;42.930;25.178;2023-11-19T11:02:04;6.50;32.50
11559;DHT22;5835;42.930;25.178;2023-11-19T11:04:39;6.40;17.60
11559;DHT22;5835;42.930;25.178;2023-11-19T11:07:09;6.40;26.70
11559;DHT22;5835;42.930;25.178;2023-11-19T11:09:38;6.40;28.20
11559;DHT22;5835;42.930;25.178;2023-11-19T11:12:06;6.40;20.60
11559;DHT22;5835;42.930;25.178;2023-11-19T11:14:38;6.50;27.30
11559;DHT22;5835;42.930;25.178;2023-11-19T11:17:09;6.40;19.40
11559;DHT22;5835;42.930;25.178;2023-11-19T11:19:38;6.30;19.50
11559;DHT22;5835;42.930;25.178;2023-11-19T11:22:07;6.40;18.40
11559;DHT22;5835;42.930;25.178;2023-11-19T11:24:58;6.40;18.20
11559;DHT22;5835;42.930;25.178;2023-11-19T11:30:40;6.40;3.50
11559;DHT22;5835;42.930;25.178;2023-11-19T11:33:26;6.40;2.80
11559;DHT22;5835;42.930;25.178;2023-11-19T11:36:08;6.40;1.00
11559;DHT22;5835;42.930;25.178;2023-11-19T11:38:41;6.40;1.00
11559;DHT22;5835;42.930;25.178;2023-11-19T11:41:19;6.40;1.00
11559;DHT22;5835;42.930;25.178;2023-11-19T11:43:48;6.40;1.00
11559;DHT22;5835;42.930;25.178;2023-11-19T11:46:53;6.40;1.00
11559;DHT22;5835;42.930;25.178;2023-11-19T11:49:30;6.50;1.00
11559;DHT22;5835;42.930;25.178;2023-11-19T11:52:02;6.50;1.00
11559;DHT22;5835;42.930;25.178;2023-11-19T11:54:30;6.50;1.00
11559;DHT22;5835;42.930;25.178;2023-11-19T11:57:03;6.50;1.00
11559;DHT22;5835;42.930;25.178;2023-11-19T11:59:42;6.60;1.00
11559;DHT22;5835;42.930;25.178;2023-11-19T12:02:11;6.70;1.00
11559;DHT22;5835;42.930;25.178;2023-11-19T12:04:41;7.00;1.00
11559;DHT22;5835;42.930;25.178;2023-11-19T12:07:13;7.10;1.00
11559;DHT22;5835;42.930;25.178;2023-11-19T12:09:41;7.30;1.00
11559;DHT22;5835;42.930;25.178;2023-11-19T12:12:21;7.60;1.00
11559;DHT22;5835;42.930;25.178;2023-11-19T12:15:09;7.60;1.00
11559;DHT22;5835;42.930;25.178;2023-11-19T12:17:42;7.90;1.00
11559;DHT22;5835;42.930;25.178;2023-11-19T12:20:13;7.80;1.00
11559;DHT22;5835;42.930;25.178;2023-11-19T12:22:43;8.10;1.00
11559;DHT22;5835;42.930;25.178;2023-11-19T12:25:12;8.00;1.00
11559;DHT22;5835;42.930;25.178;2023-11-19T12:27:41;8.10;1.00
11559;DHT22;5835;42.930;25.178;2023-11-19T12:30:09;8.40;1.00
11559;DHT22;5835;42.930;25.178;2023-11-19T12:32:40;8.30;1.00
11559;DHT22;5835;42.930;25.178;2023-11-19T12:35:09;8.20;1.00
11559;DHT22;5835;42.930;25.178;2023-11-19T12:37:44;8.30;1.00
11559;DHT22;5835;42.930;25.178;2023-11-19T12:40:16;8.00;1.00
11559;DHT22;5835;42.930;25.178;2023-11-19T12:45:11;8.00;1.00
11559;DHT22;5835;42.930;25.178;2023-11-19T12:47:39;8.20;1.00
11559;DHT22;5835;42.930;25.178;2023-11-19T12:50:09;8.10;1.00
11559;DHT22;5835;42.930;25.178;2023-11-19T12:52:37;8.00;1.00
11559;DHT22;5835;42.930;25.178;2023-11-19T12:55:24;8.10;1.00
11559;DHT22;5835;42.930;25.178;2023-11-19T12:57:52;8.20;1.00
11559;DHT22;5835;42.930;25.178;2023-11-19T13:00:21;8.10;1.00
11559;DHT22;5835;42.930;25.178;2023-11-19T13:02:50;8.20;1.00
11559;DHT22;5835;42.930;25.178;2023-11-19T13:05:25;8.00;1.00
11559;DHT22;5835;42.930;25.178;2023-11-19T13:08:01;8.00;1.00
11559;DHT22;5835;42.930;25.178;2023-11-19T13:10:30;8.00;1.00
11559;DHT22;5835;42.930;25.178;2023-11-19T13:13:03;8.00;1.00
11559;DHT22;5835;42.930;25.178;2023-11-19T13:15:31;8.10;1.00
11559;DHT22;5835;42.930;25.178;2023-11-19T13:17:59;8.20;1.00
11559;DHT22;5835;42.930;25.178;2023-11-19T13:20:27;8.10;1.00
11559;DHT22;5835;42.930;25.178;2023-11-19T13:22:56;8.20;1.00
11559;DHT22;5835;42.930;25.178;2023-11-19T13:25:24;8.20;1.00
11559;DHT22;5835;42.930;25.178;2023-11-19T13:27:54;8.30;1.00
11559;DHT22;5835;42.930;25.178;2023-11-19T13:30:22;8.10;1.00
11559;DHT22;5835;42.930;25.178;2023-11-19T13:32:50;8.20;1.00
11559;DHT22;5835;42.930;25.178;2023-11-19T13:35:18;8.20;1.00
11559;DHT22;5835;42.930;25.178;2023-11-19T13:37:46;8.10;1.00
11559;DHT22;5835;42.930;25.178;2023-11-19T13:40:14;8.10;1.00
11559;DHT22;5835;42.930;25.178;2023-11-19T13:42:42;8.10;1.00
11559;DHT22;5835;42.930;25.178;2023-11-19T13:45:12;8.10;1.00
11559;DHT22;5835;42.930;25.178;2023-11-19T13:47:41;8.10;1.00
11559;DHT22;5835;42.930;25.178;2023-11-19T13:50:09;8.10;1.00
11559;DHT22;5835;42.930;25.178;2023-11-19T13:52:38;8.20;1.00
11559;DHT22;5835;42.930;25.178;2023-11-19T13:55:07;8.10;1.00
11559;DHT22;5835;42.930;25.178;2023-11-19T13:57:36;8.10;1.00
11559;DHT22;5835;42.930;25.178;2023-11-19T14:00:06;8.00;1.00
11559;DHT22;5835;42.930;25.178;2023-11-19T14:02:39;8.20;1.00
11559;DHT22;5835;42.930;25.178;2023-11-19T14:05:07;8.10;1.00
11559;DHT22;5835;42.930;25.178;2023-11-19T14:07:35;8.20;1.00
11559;DHT22;5835;42.930;25.178;2023-11-19T14:10:04;8.00;1.00
11559;DHT22;5835;42.930;25.178;2023-11-19T14:12:32;8.00;1.00
11559;DHT22;5835;42.930;25.178;2023-11-19T14:15:00;8.00;1.00
11559;DHT22;5835;42.930;25.178;2023-11-19T14:17:28;7.90;1.00
11559;DHT22;5835;42.930;25.178;2023-11-19T14:20:01;7.90;1.00
11559;DHT22;5835;42.930;25.178;2023-11-19T14:22:28;7.90;1.00
11559;DHT22;5835;42.930;25.178;2023-11-19T14:24:57;7.80;1.00
11559;DHT22;5835;42.930;25.178;2023-11-19T14:27:24;7.70;1.00
11559;DHT22;5835;42.930;25.178;2023-11-19T14:29:52;7.60;1.00
11559;DHT22;5835;42.930;25.178;2023-11-19T14:32:20;7.60;1.00
11559;DHT22;5835;42.930;25.178;2023-11-19T14:34:48;7.40;1.00
11559;DHT22;5835;42.930;25.178;2023-11-19T14:37:17;7.20;1.00
11559;DHT22;5835;42.930;25.178;2023-11-19T14:39:45;7.00;1.00
11559;DHT22;5835;42.930;25.178;2023-11-19T14:42:13;6.90;1.00
11559;DHT22;5835;42.930;25.178;2023-11-19T14:44:40;6.80;1.00
11559;DHT22;5835;42.930;25.178;2023-11-19T14:47:08;6.70;1.00
11559;DHT22;5835;42.930;25.178;2023-11-19T14:49:36;6.70;1.00
11559;DHT22;5835;42.930;25.178;2023-11-19T14:52:04;6.60;1.00
11559;DHT22;5835;42.930;25.178;2023-11-19T14:54:34;6.50;1.00
11559;DHT22;5835;42.930;25.178;2023-11-19T14:57:01;6.50;1.00
11559;DHT22;5835;42.930;25.178;2023-11-19T14:59:29;6.40;1.00
11559;DHT22;5835;42.930;25.178;2023-11-19T15:01:56;6.40;1.00
11559;DHT22;5835;42.930;25.178;2023-11-19T15:04:24;6.30;1.00
11559;DHT22;5835;42.930;25.178;2023-11-19T15:06:52;6.20;1.00
11559;DHT22;5835;42.930;25.178;2023-11-19T15:09:20;6.10;1.00
11559;DHT22;5835;42.930;25.178;2023-11-19T15:11:49;6.10;1.00
11559;DHT22;5835;42.930;25.178;2023-11-19T15:14:17;6.00;1.00
11559;DHT22;5835;42.930;25.178;2023-11-19T15:16:47;5.90;1.00
11559;DHT22;5835;42.930;25.178;2023-11-19T15:19:17;5.80;1.00
11559;DHT22;5835;42.930;25.178;2023-11-19T15:21:46;5.80;1.00
11559;DHT22;5835;42.930;25.178;2023-11-19T15:24:13;5.80;1.00
11559;DHT22;5835;42.930;25.178;2023-11-19T15:26:41;5.80;1.00
11559;DHT22;5835;42.930;25.178;2023-11-19T15:29:10;5.70;1.00
11559;DHT22;5835;42.930;25.178;2023-11-19T15:31:39;5.60;1.00
11559;DHT22;5835;42.930;25.178;2023-11-19T15:34:07;5.50;1.00
11559;DHT22;5835;42.930;25.178;2023-11-19T15:36:35;5.50;1.00
11559;DHT22;5835;42.930;25.178;2023-11-19T15:39:03;5.40;1.00
11559;DHT22;5835;42.930;25.178;2023-11-19T15:41:30;5.40;1.00
11559;DHT22;5835;42.930;25.178;2023-11-19T15:43:58;5.40;1.00
11559;DHT22;5835;42.930;25.178;2023-11-19T15:46:28;5.40;1.70
11559;DHT22;5835;42.930;25.178;2023-11-19T15:48:55;5.30;1.00
11559;DHT22;5835;42.930;25.178;2023-11-19T15:51:23;5.30;1.00
11559;DHT22;5835;42.930;25.178;2023-11-19T15:53:50;5.20;1.00
11559;DHT22;5835;42.930;25.178;2023-11-19T15:56:18;5.20;1.00
11559;DHT22;5835;42.930;25.178;2023-11-19T15:58:46;5.30;1.40
11559;DHT22;5835;42.930;25.178;2023-11-19T16:01:15;5.10;4.10
11559;DHT22;5835;42.930;25.178;2023-11-19T16:03:44;5.10;5.60
11559;DHT22;5835;42.930;25.178;2023-11-19T16:06:11;5.10;7.90
11559;DHT22;5835;42.930;25.178;2023-11-19T16:08:39;5.00;11.10
11559;DHT22;5835;42.930;25.178;2023-11-19T16:11:06;5.00;16.80
11559;DHT22;5835;42.930;25.178;2023-11-19T16:13:35;5.10;19.60